sensor_id;sensor_type;location;lat;lon;timestamp;P1;durP1;ratioP1;P2;durP2;ratioP2
21697;SDS011;11010;49.548;11.926;2022-10-17T00:00:38;8.82;;;1.90;;
21697;SDS011;11010;49.548;11.926;2022-10-17T00:03:05;7.50;;;2.00;;
21697;SDS011;11010;49.548;11.926;2022-10-17T00:05:33;9.20;;;1.98;;
21697;SDS011;11010;49.548;11.926;2022-10-17T00:08:00;9.18;;;1.75;;
21697;SDS011;11010;49.548;11.926;2022-10-17T00:10:28;6.88;;;1.90;;
21697;SDS011;11010;49.548;11.926;2022-10-17T00:12:55;8.23;;;2.00;;
21697;SDS011;11010;49.548;11.926;2022-10-17T00:15:23;10.75;;;2.10;;
21697;SDS011;11010;49.548;11.926;2022-10-17T00:17:50;7.78;;;2.05;;
21697;SDS011;11010;49.548;11.926;2022-10-17T00:20:17;9.75;;;2.40;;
21697;SDS011;11010;49.548;11.926;2022-10-17T00:22:45;7.03;;;1.88;;
21697;SDS011;11010;49.548;11.926;2022-10-17T00:25:12;9.20;;;2.20;;
21697;SDS011;11010;49.548;11.926;2022-10-17T00:27:40;6.20;;;1.80;;
21697;SDS011;11010;49.548;11.926;2022-10-17T00:30:09;6.53;;;1.98;;
21697;SDS011;11010;49.548;11.926;2022-10-17T00:32:37;6.60;;;2.05;;
21697;SDS011;11010;49.548;11.926;2022-10-17T00:35:05;6.20;;;1.98;;
21697;SDS011;11010;49.548;11.926;2022-10-17T00:37:33;6.57;;;1.70;;
21697;SDS011;11010;49.548;11.926;2022-10-17T00:40:00;7.57;;;1.90;;
21697;SDS011;11010;49.548;11.926;2022-10-17T00:42:27;7.25;;;2.13;;
21697;SDS011;11010;49.548;11.926;2022-10-17T00:45:07;6.45;;;1.90;;
21697;SDS011;11010;49.548;11.926;2022-10-17T00:47:41;6.78;;;1.95;;
21697;SDS011;11010;49.548;11.926;2022-10-17T00:50:11;9.47;;;2.33;;
21697;SDS011;11010;49.548;11.926;2022-10-17T00:52:39;8.43;;;2.15;;
21697;SDS011;11010;49.548;11.926;2022-10-17T00:55:09;8.38;;;2.05;;
21697;SDS011;11010;49.548;11.926;2022-10-17T00:57:38;9.25;;;2.15;;
21697;SDS011;11010;49.548;11.926;2022-10-17T01:00:06;6.22;;;1.80;;
21697;SDS011;11010;49.548;11.926;2022-10-17T01:02:34;7.82;;;2.05;;
21697;SDS011;11010;49.548;11.926;2022-10-17T01:05:02;8.23;;;2.00;;
21697;SDS011;11010;49.548;11.926;2022-10-17T01:07:29;7.72;;;1.92;;
21697;SDS011;11010;49.548;11.926;2022-10-17T01:10:03;6.97;;;2.20;;
21697;SDS011;11010;49.548;11.926;2022-10-17T01:12:47;7.53;;;1.90;;
21697;SDS011;11010;49.548;11.926;2022-10-17T01:28:17;9.10;;;2.00;;
21697;SDS011;11010;49.548;11.926;2022-10-17T01:30:57;6.53;;;1.93;;
21697;SDS011;11010;49.548;11.926;2022-10-17T01:36:11;6.60;;;1.93;;
21697;SDS011;11010;49.548;11.926;2022-10-17T01:38:45;6.30;;;2.00;;
21697;SDS011;11010;49.548;11.926;2022-10-17T01:44:02;8.53;;;1.90;;
21697;SDS011;11010;49.548;11.926;2022-10-17T01:46:33;8.47;;;2.23;;
21697;SDS011;11010;49.548;11.926;2022-10-17T01:49:02;8.27;;;2.10;;
21697;SDS011;11010;49.548;11.926;2022-10-17T01:51:41;7.23;;;1.90;;
21697;SDS011;11010;49.548;11.926;2022-10-17T01:54:12;7.47;;;2.00;;
21697;SDS011;11010;49.548;11.926;2022-10-17T01:56:40;6.67;;;2.03;;
21697;SDS011;11010;49.548;11.926;2022-10-17T01:59:14;8.83;;;1.90;;
21697;SDS011;11010;49.548;11.926;2022-10-17T02:01:44;7.47;;;2.43;;
21697;SDS011;11010;49.548;11.926;2022-10-17T02:04:12;8.43;;;2.10;;
21697;SDS011;11010;49.548;11.926;2022-10-17T02:06:41;7.03;;;2.13;;
21697;SDS011;11010;49.548;11.926;2022-10-17T02:09:29;7.60;;;1.93;;
21697;SDS011;11010;49.548;11.926;2022-10-17T02:15:13;7.17;;;2.20;;
21697;SDS011;11010;49.548;11.926;2022-10-17T02:17:22;6.70;;;2.00;;
21697;SDS011;11010;49.548;11.926;2022-10-17T02:22:43;7.33;;;2.37;;
21697;SDS011;11010;49.548;11.926;2022-10-17T02:30:29;7.20;;;2.20;;
21697;SDS011;11010;49.548;11.926;2022-10-17T02:32:59;8.30;;;1.93;;
21697;SDS011;11010;49.548;11.926;2022-10-17T02:35:29;6.73;;;2.00;;
21697;SDS011;11010;49.548;11.926;2022-10-17T02:37:57;8.37;;;2.30;;
21697;SDS011;11010;49.548;11.926;2022-10-17T02:40:26;8.90;;;2.03;;
21697;SDS011;11010;49.548;11.926;2022-10-17T02:42:55;8.07;;;2.00;;
21697;SDS011;11010;49.548;11.926;2022-10-17T02:45:28;9.07;;;2.30;;
21697;SDS011;11010;49.548;11.926;2022-10-17T02:53:12;11.47;;;2.27;;
21697;SDS011;11010;49.548;11.926;2022-10-17T02:55:42;7.03;;;1.93;;
21697;SDS011;11010;49.548;11.926;2022-10-17T02:58:17;7.80;;;1.90;;
21697;SDS011;11010;49.548;11.926;2022-10-17T03:00:46;7.10;;;2.00;;
21697;SDS011;11010;49.548;11.926;2022-10-17T03:03:18;7.60;;;1.90;;
21697;SDS011;11010;49.548;11.926;2022-10-17T03:05:45;10.30;;;1.80;;
21697;SDS011;11010;49.548;11.926;2022-10-17T03:08:13;7.97;;;1.83;;
21697;SDS011;11010;49.548;11.926;2022-10-17T03:10:40;7.87;;;2.00;;
21697;SDS011;11010;49.548;11.926;2022-10-17T03:13:08;8.03;;;2.10;;
21697;SDS011;11010;49.548;11.926;2022-10-17T03:15:38;9.30;;;2.20;;
21697;SDS011;11010;49.548;11.926;2022-10-17T03:18:05;7.67;;;1.97;;
21697;SDS011;11010;49.548;11.926;2022-10-17T03:20:33;7.30;;;1.87;;
21697;SDS011;11010;49.548;11.926;2022-10-17T03:23:01;7.90;;;2.40;;
21697;SDS011;11010;49.548;11.926;2022-10-17T03:25:29;9.20;;;2.07;;
21697;SDS011;11010;49.548;11.926;2022-10-17T03:27:57;8.27;;;2.37;;
21697;SDS011;11010;49.548;11.926;2022-10-17T03:30:26;7.30;;;1.97;;
21697;SDS011;11010;49.548;11.926;2022-10-17T03:32:53;6.53;;;1.90;;
21697;SDS011;11010;49.548;11.926;2022-10-17T03:35:21;8.83;;;2.23;;
21697;SDS011;11010;49.548;11.926;2022-10-17T03:37:49;6.70;;;2.00;;
21697;SDS011;11010;49.548;11.926;2022-10-17T03:40:19;7.37;;;1.77;;
21697;SDS011;11010;49.548;11.926;2022-10-17T03:42:46;7.10;;;2.13;;
21697;SDS011;11010;49.548;11.926;2022-10-17T03:45:13;6.87;;;1.90;;
21697;SDS011;11010;49.548;11.926;2022-10-17T03:47:42;6.93;;;1.73;;
21697;SDS011;11010;49.548;11.926;2022-10-17T03:50:09;9.47;;;2.20;;
21697;SDS011;11010;49.548;11.926;2022-10-17T03:52:38;9.20;;;1.83;;
21697;SDS011;11010;49.548;11.926;2022-10-17T03:55:07;8.87;;;1.87;;
21697;SDS011;11010;49.548;11.926;2022-10-17T03:57:34;7.37;;;1.90;;
21697;SDS011;11010;49.548;11.926;2022-10-17T04:00:04;10.20;;;2.20;;
21697;SDS011;11010;49.548;11.926;2022-10-17T04:02:39;11.30;;;2.40;;
21697;SDS011;11010;49.548;11.926;2022-10-17T04:05:11;7.03;;;1.80;;
21697;SDS011;11010;49.548;11.926;2022-10-17T04:07:39;7.47;;;1.80;;
21697;SDS011;11010;49.548;11.926;2022-10-17T04:10:08;6.23;;;1.80;;
21697;SDS011;11010;49.548;11.926;2022-10-17T04:12:37;6.67;;;1.90;;
21697;SDS011;11010;49.548;11.926;2022-10-17T04:15:05;8.33;;;1.87;;
21697;SDS011;11010;49.548;11.926;2022-10-17T04:17:34;7.60;;;1.80;;
21697;SDS011;11010;49.548;11.926;2022-10-17T04:20:04;7.40;;;2.07;;
21697;SDS011;11010;49.548;11.926;2022-10-17T04:22:32;7.27;;;1.80;;
21697;SDS011;11010;49.548;11.926;2022-10-17T04:25:00;8.73;;;1.93;;
21697;SDS011;11010;49.548;11.926;2022-10-17T04:27:41;9.07;;;1.93;;
21697;SDS011;11010;49.548;11.926;2022-10-17T04:30:09;6.10;;;1.87;;
21697;SDS011;11010;49.548;11.926;2022-10-17T04:32:37;8.87;;;1.90;;
21697;SDS011;11010;49.548;11.926;2022-10-17T04:35:12;7.00;;;1.90;;
21697;SDS011;11010;49.548;11.926;2022-10-17T04:37:44;5.90;;;1.70;;
21697;SDS011;11010;49.548;11.926;2022-10-17T04:40:16;6.97;;;1.93;;
21697;SDS011;11010;49.548;11.926;2022-10-17T04:42:44;6.10;;;1.70;;
21697;SDS011;11010;49.548;11.926;2022-10-17T04:45:16;8.33;;;1.70;;
21697;SDS011;11010;49.548;11.926;2022-10-17T04:47:44;8.93;;;1.70;;
21697;SDS011;11010;49.548;11.926;2022-10-17T04:50:12;7.87;;;1.90;;
21697;SDS011;11010;49.548;11.926;2022-10-17T04:52:40;5.90;;;1.70;;
21697;SDS011;11010;49.548;11.926;2022-10-17T04:55:07;7.63;;;1.83;;
21697;SDS011;11010;49.548;11.926;2022-10-17T04:57:35;7.90;;;1.60;;
21697;SDS011;11010;49.548;11.926;2022-10-17T05:00:10;7.07;;;1.90;;
21697;SDS011;11010;49.548;11.926;2022-10-17T05:02:46;6.00;;;1.60;;
21697;SDS011;11010;49.548;11.926;2022-10-17T05:05:14;6.03;;;1.97;;
21697;SDS011;11010;49.548;11.926;2022-10-17T05:07:44;5.23;;;1.67;;
21697;SDS011;11010;49.548;11.926;2022-10-17T05:10:16;8.07;;;1.70;;
21697;SDS011;11010;49.548;11.926;2022-10-17T05:12:46;7.17;;;2.00;;
21697;SDS011;11010;49.548;11.926;2022-10-17T05:15:16;5.20;;;1.60;;
21697;SDS011;11010;49.548;11.926;2022-10-17T05:17:43;6.00;;;1.57;;
21697;SDS011;11010;49.548;11.926;2022-10-17T05:20:11;5.67;;;1.50;;
21697;SDS011;11010;49.548;11.926;2022-10-17T05:22:39;7.50;;;1.60;;
21697;SDS011;11010;49.548;11.926;2022-10-17T05:25:09;6.23;;;1.70;;
21697;SDS011;11010;49.548;11.926;2022-10-17T05:27:37;5.93;;;1.53;;
21697;SDS011;11010;49.548;11.926;2022-10-17T05:30:04;5.90;;;1.77;;
21697;SDS011;11010;49.548;11.926;2022-10-17T05:32:34;6.70;;;1.90;;
21697;SDS011;11010;49.548;11.926;2022-10-17T05:35:02;7.70;;;1.70;;
21697;SDS011;11010;49.548;11.926;2022-10-17T05:37:31;6.17;;;1.70;;
21697;SDS011;11010;49.548;11.926;2022-10-17T05:40:00;7.47;;;1.80;;
21697;SDS011;11010;49.548;11.926;2022-10-17T05:42:29;6.13;;;1.60;;
21697;SDS011;11010;49.548;11.926;2022-10-17T05:44:57;8.97;;;1.77;;
21697;SDS011;11010;49.548;11.926;2022-10-17T05:47:25;7.07;;;2.07;;
21697;SDS011;11010;49.548;11.926;2022-10-17T05:49:53;7.53;;;1.97;;
21697;SDS011;11010;49.548;11.926;2022-10-17T05:52:30;7.67;;;1.70;;
21697;SDS011;11010;49.548;11.926;2022-10-17T05:55:09;7.67;;;1.90;;
21697;SDS011;11010;49.548;11.926;2022-10-17T05:57:37;5.90;;;1.40;;
21697;SDS011;11010;49.548;11.926;2022-10-17T06:00:09;4.43;;;1.40;;
21697;SDS011;11010;49.548;11.926;2022-10-17T06:02:52;7.43;;;1.73;;
21697;SDS011;11010;49.548;11.926;2022-10-17T06:05:20;7.60;;;1.90;;
21697;SDS011;11010;49.548;11.926;2022-10-17T06:07:48;4.63;;;1.50;;
21697;SDS011;11010;49.548;11.926;2022-10-17T06:10:19;6.80;;;1.80;;
21697;SDS011;11010;49.548;11.926;2022-10-17T06:12:47;5.43;;;1.53;;
21697;SDS011;11010;49.548;11.926;2022-10-17T06:15:14;8.60;;;1.60;;
21697;SDS011;11010;49.548;11.926;2022-10-17T06:17:46;5.60;;;1.57;;
21697;SDS011;11010;49.548;11.926;2022-10-17T06:20:13;5.37;;;1.43;;
21697;SDS011;11010;49.548;11.926;2022-10-17T06:22:42;7.33;;;1.80;;
21697;SDS011;11010;49.548;11.926;2022-10-17T06:25:15;6.73;;;1.60;;
21697;SDS011;11010;49.548;11.926;2022-10-17T06:27:42;6.30;;;1.50;;
21697;SDS011;11010;49.548;11.926;2022-10-17T06:30:10;8.13;;;2.03;;
21697;SDS011;11010;49.548;11.926;2022-10-17T06:32:39;7.00;;;2.13;;
21697;SDS011;11010;49.548;11.926;2022-10-17T06:35:06;8.20;;;2.83;;
21697;SDS011;11010;49.548;11.926;2022-10-17T06:37:35;9.73;;;3.10;;
21697;SDS011;11010;49.548;11.926;2022-10-17T06:40:06;9.27;;;2.77;;
21697;SDS011;11010;49.548;11.926;2022-10-17T06:42:39;10.30;;;3.27;;
21697;SDS011;11010;49.548;11.926;2022-10-17T06:45:22;17.47;;;6.70;;
21697;SDS011;11010;49.548;11.926;2022-10-17T06:48:08;17.60;;;7.47;;
21697;SDS011;11010;49.548;11.926;2022-10-17T06:50:41;17.67;;;6.93;;
21697;SDS011;11010;49.548;11.926;2022-10-17T06:53:18;16.57;;;6.73;;
21697;SDS011;11010;49.548;11.926;2022-10-17T06:56:07;17.33;;;6.70;;
21697;SDS011;11010;49.548;11.926;2022-10-17T06:58:58;15.20;;;5.00;;
21697;SDS011;11010;49.548;11.926;2022-10-17T07:01:32;11.93;;;4.03;;
21697;SDS011;11010;49.548;11.926;2022-10-17T07:04:01;9.43;;;3.10;;
21697;SDS011;11010;49.548;11.926;2022-10-17T07:06:30;10.87;;;3.30;;
21697;SDS011;11010;49.548;11.926;2022-10-17T07:09:03;8.27;;;3.10;;
21697;SDS011;11010;49.548;11.926;2022-10-17T07:11:34;8.47;;;3.37;;
21697;SDS011;11010;49.548;11.926;2022-10-17T07:14:02;8.47;;;2.77;;
21697;SDS011;11010;49.548;11.926;2022-10-17T07:16:29;8.57;;;2.73;;
21697;SDS011;11010;49.548;11.926;2022-10-17T07:19:06;7.87;;;2.60;;
21697;SDS011;11010;49.548;11.926;2022-10-17T07:21:36;8.40;;;2.50;;
21697;SDS011;11010;49.548;11.926;2022-10-17T07:24:06;8.90;;;3.10;;
21697;SDS011;11010;49.548;11.926;2022-10-17T07:26:34;7.97;;;3.40;;
21697;SDS011;11010;49.548;11.926;2022-10-17T07:29:02;9.60;;;3.90;;
21697;SDS011;11010;49.548;11.926;2022-10-17T07:31:45;8.80;;;3.63;;
21697;SDS011;11010;49.548;11.926;2022-10-17T07:34:14;8.00;;;3.00;;
21697;SDS011;11010;49.548;11.926;2022-10-17T07:36:43;6.90;;;2.27;;
21697;SDS011;11010;49.548;11.926;2022-10-17T07:39:12;6.47;;;2.23;;
21697;SDS011;11010;49.548;11.926;2022-10-17T07:41:39;7.00;;;2.10;;
21697;SDS011;11010;49.548;11.926;2022-10-17T07:44:07;7.93;;;2.57;;
21697;SDS011;11010;49.548;11.926;2022-10-17T07:46:44;7.60;;;2.57;;
21697;SDS011;11010;49.548;11.926;2022-10-17T07:49:12;7.47;;;2.50;;
21697;SDS011;11010;49.548;11.926;2022-10-17T07:51:40;8.33;;;2.57;;
21697;SDS011;11010;49.548;11.926;2022-10-17T07:54:07;8.80;;;2.33;;
21697;SDS011;11010;49.548;11.926;2022-10-17T07:56:34;7.50;;;2.80;;
21697;SDS011;11010;49.548;11.926;2022-10-17T07:59:02;7.83;;;2.63;;
21697;SDS011;11010;49.548;11.926;2022-10-17T08:01:34;7.23;;;2.60;;
21697;SDS011;11010;49.548;11.926;2022-10-17T08:04:02;8.20;;;2.50;;
21697;SDS011;11010;49.548;11.926;2022-10-17T08:06:29;7.03;;;2.30;;
21697;SDS011;11010;49.548;11.926;2022-10-17T08:08:57;7.60;;;2.50;;
21697;SDS011;11010;49.548;11.926;2022-10-17T08:11:24;7.63;;;2.40;;
21697;SDS011;11010;49.548;11.926;2022-10-17T08:13:52;8.13;;;2.40;;
21697;SDS011;11010;49.548;11.926;2022-10-17T08:16:19;9.17;;;2.60;;
21697;SDS011;11010;49.548;11.926;2022-10-17T08:18:47;12.00;;;2.77;;
21697;SDS011;11010;49.548;11.926;2022-10-17T08:21:14;10.83;;;3.50;;
21697;SDS011;11010;49.548;11.926;2022-10-17T08:23:41;8.37;;;3.30;;
21697;SDS011;11010;49.548;11.926;2022-10-17T08:26:09;8.53;;;2.80;;
21697;SDS011;11010;49.548;11.926;2022-10-17T08:28:38;7.03;;;2.27;;
21697;SDS011;11010;49.548;11.926;2022-10-17T08:31:10;8.63;;;2.67;;
21697;SDS011;11010;49.548;11.926;2022-10-17T08:33:37;10.70;;;2.50;;
21697;SDS011;11010;49.548;11.926;2022-10-17T08:36:05;9.80;;;2.43;;
21697;SDS011;11010;49.548;11.926;2022-10-17T08:38:34;7.00;;;2.50;;
21697;SDS011;11010;49.548;11.926;2022-10-17T08:41:05;8.43;;;2.50;;
21697;SDS011;11010;49.548;11.926;2022-10-17T08:43:46;8.00;;;2.40;;
21697;SDS011;11010;49.548;11.926;2022-10-17T08:46:16;8.10;;;2.47;;
21697;SDS011;11010;49.548;11.926;2022-10-17T08:48:44;7.40;;;2.30;;
21697;SDS011;11010;49.548;11.926;2022-10-17T08:51:23;8.00;;;2.50;;
21697;SDS011;11010;49.548;11.926;2022-10-17T08:56:23;7.37;;;2.27;;
21697;SDS011;11010;49.548;11.926;2022-10-17T08:59:10;6.50;;;2.03;;
21697;SDS011;11010;49.548;11.926;2022-10-17T09:09:50;8.87;;;2.60;;
21697;SDS011;11010;49.548;11.926;2022-10-17T09:12:33;8.40;;;2.47;;
21697;SDS011;11010;49.548;11.926;2022-10-17T09:17:51;9.37;;;2.83;;
21697;SDS011;11010;49.548;11.926;2022-10-17T09:25:17;11.20;;;3.33;;
21697;SDS011;11010;49.548;11.926;2022-10-17T09:27:48;10.30;;;3.37;;
21697;SDS011;11010;49.548;11.926;2022-10-17T09:35:58;10.43;;;3.40;;
21697;SDS011;11010;49.548;11.926;2022-10-17T09:38:29;12.33;;;4.10;;
21697;SDS011;11010;49.548;11.926;2022-10-17T09:41:03;10.63;;;3.77;;
21697;SDS011;11010;49.548;11.926;2022-10-17T09:43:58;10.67;;;3.73;;
21697;SDS011;11010;49.548;11.926;2022-10-17T09:46:35;10.80;;;4.00;;
21697;SDS011;11010;49.548;11.926;2022-10-17T09:49:11;9.20;;;3.13;;
21697;SDS011;11010;49.548;11.926;2022-10-17T09:51:42;9.17;;;3.50;;
21697;SDS011;11010;49.548;11.926;2022-10-17T09:54:19;8.97;;;3.47;;
21697;SDS011;11010;49.548;11.926;2022-10-17T09:59:32;9.17;;;3.37;;
21697;SDS011;11010;49.548;11.926;2022-10-17T10:02:06;9.60;;;3.25;;
21697;SDS011;11010;49.548;11.926;2022-10-17T10:04:34;9.45;;;3.33;;
21697;SDS011;11010;49.548;11.926;2022-10-17T10:07:22;10.00;;;3.10;;
21697;SDS011;11010;49.548;11.926;2022-10-17T10:09:54;12.32;;;3.13;;
21697;SDS011;11010;49.548;11.926;2022-10-17T10:12:24;12.27;;;3.03;;
21697;SDS011;11010;49.548;11.926;2022-10-17T10:14:52;10.25;;;3.10;;
21697;SDS011;11010;49.548;11.926;2022-10-17T10:17:37;10.27;;;3.40;;
21697;SDS011;11010;49.548;11.926;2022-10-17T10:23:12;8.50;;;2.90;;
21697;SDS011;11010;49.548;11.926;2022-10-17T10:25:53;9.82;;;2.88;;
21697;SDS011;11010;49.548;11.926;2022-10-17T10:28:31;9.15;;;2.85;;
21697;SDS011;11010;49.548;11.926;2022-10-17T10:30:59;9.10;;;3.03;;
21697;SDS011;11010;49.548;11.926;2022-10-17T10:33:30;8.73;;;2.80;;
21697;SDS011;11010;49.548;11.926;2022-10-17T10:35:59;8.70;;;2.95;;
21697;SDS011;11010;49.548;11.926;2022-10-17T10:38:27;8.32;;;3.08;;
21697;SDS011;11010;49.548;11.926;2022-10-17T10:40:56;9.73;;;3.03;;
21697;SDS011;11010;49.548;11.926;2022-10-17T10:45:54;8.93;;;3.17;;
21697;SDS011;11010;49.548;11.926;2022-10-17T10:48:23;9.82;;;3.70;;
21697;SDS011;11010;49.548;11.926;2022-10-17T10:56:16;8.20;;;2.97;;
21697;SDS011;11010;49.548;11.926;2022-10-17T10:58:54;9.05;;;3.53;;
21697;SDS011;11010;49.548;11.926;2022-10-17T11:06:35;9.30;;;3.22;;
21697;SDS011;11010;49.548;11.926;2022-10-17T11:11:38;9.60;;;3.72;;
21697;SDS011;11010;49.548;11.926;2022-10-17T11:14:42;8.68;;;3.13;;
21697;SDS011;11010;49.548;11.926;2022-10-17T11:17:18;12.32;;;3.75;;
21697;SDS011;11010;49.548;11.926;2022-10-17T11:19:51;9.90;;;3.60;;
21697;SDS011;11010;49.548;11.926;2022-10-17T11:22:25;9.90;;;4.07;;
21697;SDS011;11010;49.548;11.926;2022-10-17T11:24:59;10.70;;;3.80;;
21697;SDS011;11010;49.548;11.926;2022-10-17T11:27:27;9.48;;;3.75;;
21697;SDS011;11010;49.548;11.926;2022-10-17T11:29:55;9.85;;;3.90;;
21697;SDS011;11010;49.548;11.926;2022-10-17T11:34:52;9.88;;;3.78;;
21697;SDS011;11010;49.548;11.926;2022-10-17T11:37:22;10.85;;;4.32;;
21697;SDS011;11010;49.548;11.926;2022-10-17T11:39:55;10.73;;;3.70;;
21697;SDS011;11010;49.548;11.926;2022-10-17T11:42:31;11.65;;;4.28;;
21697;SDS011;11010;49.548;11.926;2022-10-17T11:45:14;9.55;;;3.45;;
21697;SDS011;11010;49.548;11.926;2022-10-17T11:47:45;9.25;;;3.70;;
21697;SDS011;11010;49.548;11.926;2022-10-17T11:50:25;9.45;;;3.63;;
21697;SDS011;11010;49.548;11.926;2022-10-17T11:53:15;9.80;;;4.00;;
21697;SDS011;11010;49.548;11.926;2022-10-17T11:55:42;8.73;;;3.50;;
21697;SDS011;11010;49.548;11.926;2022-10-17T12:08:35;11.75;;;4.35;;
21697;SDS011;11010;49.548;11.926;2022-10-17T12:29:51;9.93;;;3.92;;
21697;SDS011;11010;49.548;11.926;2022-10-17T12:32:24;11.13;;;4.13;;
21697;SDS011;11010;49.548;11.926;2022-10-17T12:35:02;9.98;;;4.25;;
21697;SDS011;11010;49.548;11.926;2022-10-17T12:42:54;11.43;;;4.63;;
21697;SDS011;11010;49.548;11.926;2022-10-17T12:48:08;11.68;;;4.90;;
21697;SDS011;11010;49.548;11.926;2022-10-17T12:56:13;13.57;;;4.68;;
21697;SDS011;11010;49.548;11.926;2022-10-17T12:58:44;10.88;;;4.75;;
21697;SDS011;11010;49.548;11.926;2022-10-17T13:01:17;10.15;;;4.50;;
21697;SDS011;11010;49.548;11.926;2022-10-17T13:03:49;11.27;;;4.68;;
21697;SDS011;11010;49.548;11.926;2022-10-17T13:06:19;10.30;;;4.30;;
21697;SDS011;11010;49.548;11.926;2022-10-17T13:08:49;11.15;;;4.80;;
21697;SDS011;11010;49.548;11.926;2022-10-17T13:11:24;10.80;;;5.00;;
21697;SDS011;11010;49.548;11.926;2022-10-17T13:13:52;10.40;;;4.50;;
21697;SDS011;11010;49.548;11.926;2022-10-17T13:16:27;10.15;;;4.80;;
21697;SDS011;11010;49.548;11.926;2022-10-17T13:18:55;10.65;;;4.60;;
21697;SDS011;11010;49.548;11.926;2022-10-17T13:21:23;12.65;;;5.30;;
21697;SDS011;11010;49.548;11.926;2022-10-17T13:23:50;11.25;;;4.65;;
21697;SDS011;11010;49.548;11.926;2022-10-17T13:26:21;11.05;;;4.53;;
21697;SDS011;11010;49.548;11.926;2022-10-17T13:29:02;12.30;;;4.65;;
21697;SDS011;11010;49.548;11.926;2022-10-17T13:31:31;11.93;;;4.47;;
21697;SDS011;11010;49.548;11.926;2022-10-17T13:34:00;11.75;;;4.80;;
21697;SDS011;11010;49.548;11.926;2022-10-17T13:36:28;12.05;;;4.78;;
21697;SDS011;11010;49.548;11.926;2022-10-17T13:38:57;10.77;;;4.55;;
21697;SDS011;11010;49.548;11.926;2022-10-17T13:41:27;10.73;;;4.72;;
21697;SDS011;11010;49.548;11.926;2022-10-17T13:44:02;11.60;;;4.53;;
21697;SDS011;11010;49.548;11.926;2022-10-17T13:46:31;10.98;;;5.05;;
21697;SDS011;11010;49.548;11.926;2022-10-17T13:49:08;10.13;;;4.75;;
21697;SDS011;11010;49.548;11.926;2022-10-17T13:51:36;12.60;;;4.85;;
21697;SDS011;11010;49.548;11.926;2022-10-17T13:54:16;11.18;;;4.82;;
21697;SDS011;11010;49.548;11.926;2022-10-17T13:56:43;10.52;;;4.72;;
21697;SDS011;11010;49.548;11.926;2022-10-17T13:59:32;10.07;;;4.35;;
21697;SDS011;11010;49.548;11.926;2022-10-17T14:02:00;13.13;;;5.40;;
21697;SDS011;11010;49.548;11.926;2022-10-17T14:04:27;10.80;;;4.70;;
21697;SDS011;11010;49.548;11.926;2022-10-17T14:07:18;11.75;;;4.93;;
21697;SDS011;11010;49.548;11.926;2022-10-17T14:09:48;11.18;;;5.43;;
21697;SDS011;11010;49.548;11.926;2022-10-17T14:12:15;11.82;;;4.97;;
21697;SDS011;11010;49.548;11.926;2022-10-17T14:14:49;11.13;;;5.15;;
21697;SDS011;11010;49.548;11.926;2022-10-17T14:17:35;13.13;;;5.43;;
21697;SDS011;11010;49.548;11.926;2022-10-17T14:20:04;11.73;;;5.30;;
21697;SDS011;11010;49.548;11.926;2022-10-17T14:22:53;13.00;;;5.28;;
21697;SDS011;11010;49.548;11.926;2022-10-17T14:25:41;10.73;;;4.85;;
21697;SDS011;11010;49.548;11.926;2022-10-17T14:30:40;12.07;;;4.80;;
21697;SDS011;11010;49.548;11.926;2022-10-17T14:33:28;10.00;;;4.47;;
21697;SDS011;11010;49.548;11.926;2022-10-17T14:35:56;11.43;;;4.57;;
21697;SDS011;11010;49.548;11.926;2022-10-17T14:38:24;10.00;;;4.25;;
21697;SDS011;11010;49.548;11.926;2022-10-17T14:41:04;11.68;;;4.65;;
21697;SDS011;11010;49.548;11.926;2022-10-17T14:43:59;10.95;;;4.72;;
21697;SDS011;11010;49.548;11.926;2022-10-17T14:46:27;11.43;;;4.30;;
21697;SDS011;11010;49.548;11.926;2022-10-17T14:48:56;10.52;;;4.20;;
21697;SDS011;11010;49.548;11.926;2022-10-17T14:51:24;10.30;;;4.50;;
21697;SDS011;11010;49.548;11.926;2022-10-17T14:54:15;11.95;;;4.22;;
21697;SDS011;11010;49.548;11.926;2022-10-17T14:56:48;10.57;;;3.90;;
21697;SDS011;11010;49.548;11.926;2022-10-17T14:59:16;10.30;;;3.90;;
21697;SDS011;11010;49.548;11.926;2022-10-17T15:02:07;9.80;;;4.20;;
21697;SDS011;11010;49.548;11.926;2022-10-17T15:04:35;11.05;;;3.90;;
21697;SDS011;11010;49.548;11.926;2022-10-17T15:07:02;9.75;;;3.67;;
21697;SDS011;11010;49.548;11.926;2022-10-17T15:09:30;10.40;;;4.00;;
21697;SDS011;11010;49.548;11.926;2022-10-17T15:12:00;9.02;;;3.45;;
21697;SDS011;11010;49.548;11.926;2022-10-17T15:14:28;11.10;;;4.00;;
21697;SDS011;11010;49.548;11.926;2022-10-17T15:16:56;9.85;;;3.78;;
21697;SDS011;11010;49.548;11.926;2022-10-17T15:19:23;10.75;;;3.83;;
21697;SDS011;11010;49.548;11.926;2022-10-17T15:21:50;9.82;;;3.45;;
21697;SDS011;11010;49.548;11.926;2022-10-17T15:24:18;9.85;;;3.60;;
21697;SDS011;11010;49.548;11.926;2022-10-17T15:26:45;9.20;;;3.92;;
21697;SDS011;11010;49.548;11.926;2022-10-17T15:29:14;10.20;;;3.65;;
21697;SDS011;11010;49.548;11.926;2022-10-17T15:31:42;10.98;;;3.70;;
21697;SDS011;11010;49.548;11.926;2022-10-17T15:34:09;10.45;;;4.00;;
21697;SDS011;11010;49.548;11.926;2022-10-17T15:36:40;11.48;;;3.95;;
21697;SDS011;11010;49.548;11.926;2022-10-17T15:39:08;10.15;;;3.83;;
21697;SDS011;11010;49.548;11.926;2022-10-17T15:41:36;9.68;;;3.67;;
21697;SDS011;11010;49.548;11.926;2022-10-17T15:44:03;8.90;;;3.45;;
21697;SDS011;11010;49.548;11.926;2022-10-17T15:46:32;8.27;;;3.28;;
21697;SDS011;11010;49.548;11.926;2022-10-17T15:49:01;8.65;;;3.45;;
21697;SDS011;11010;49.548;11.926;2022-10-17T15:51:28;8.73;;;3.42;;
21697;SDS011;11010;49.548;11.926;2022-10-17T15:53:56;10.45;;;3.53;;
21697;SDS011;11010;49.548;11.926;2022-10-17T15:56:27;8.85;;;3.58;;
21697;SDS011;11010;49.548;11.926;2022-10-17T15:58:55;11.18;;;3.67;;
21697;SDS011;11010;49.548;11.926;2022-10-17T16:01:24;9.02;;;3.60;;
21697;SDS011;11010;49.548;11.926;2022-10-17T16:03:52;8.40;;;3.70;;
21697;SDS011;11010;49.548;11.926;2022-10-17T16:06:20;9.43;;;3.60;;
21697;SDS011;11010;49.548;11.926;2022-10-17T16:08:48;8.63;;;3.60;;
21697;SDS011;11010;49.548;11.926;2022-10-17T16:11:19;9.55;;;3.50;;
21697;SDS011;11010;49.548;11.926;2022-10-17T16:13:50;10.85;;;4.05;;
21697;SDS011;11010;49.548;11.926;2022-10-17T16:16:18;10.23;;;3.88;;
21697;SDS011;11010;49.548;11.926;2022-10-17T16:18:47;10.85;;;3.50;;
21697;SDS011;11010;49.548;11.926;2022-10-17T16:21:15;10.68;;;3.47;;
21697;SDS011;11010;49.548;11.926;2022-10-17T16:23:43;9.63;;;3.88;;
21697;SDS011;11010;49.548;11.926;2022-10-17T16:26:11;10.25;;;3.65;;
21697;SDS011;11010;49.548;11.926;2022-10-17T16:28:41;8.70;;;3.72;;
21697;SDS011;11010;49.548;11.926;2022-10-17T16:31:16;8.32;;;3.47;;
21697;SDS011;11010;49.548;11.926;2022-10-17T16:33:45;8.80;;;3.85;;
21697;SDS011;11010;49.548;11.926;2022-10-17T16:36:13;8.82;;;3.50;;
21697;SDS011;11010;49.548;11.926;2022-10-17T16:38:40;10.35;;;3.80;;
21697;SDS011;11010;49.548;11.926;2022-10-17T16:43:47;11.07;;;3.72;;
21697;SDS011;11010;49.548;11.926;2022-10-17T16:46:15;10.57;;;3.40;;
21697;SDS011;11010;49.548;11.926;2022-10-17T16:48:43;10.50;;;3.90;;
21697;SDS011;11010;49.548;11.926;2022-10-17T16:51:11;9.15;;;3.28;;
21697;SDS011;11010;49.548;11.926;2022-10-17T16:53:39;11.57;;;3.50;;
21697;SDS011;11010;49.548;11.926;2022-10-17T16:56:10;10.05;;;3.67;;
21697;SDS011;11010;49.548;11.926;2022-10-17T16:58:38;12.15;;;3.78;;
21697;SDS011;11010;49.548;11.926;2022-10-17T17:01:10;9.88;;;4.00;;
21697;SDS011;11010;49.548;11.926;2022-10-17T17:03:39;10.15;;;3.60;;